Search for airport 
image banner adimage banner adimage banner ad
image banner ad

KLNS - Lancaster

Located in Lancaster, United States

ICAO - LNS, IATA - LNS

Data provided by Airmate  

General information

Coordinates: N40°7'20" W76°17'40"
Elevation is 403 feet MSL.
Magnetic variation is -09° East
View others Airports in Pennsylvania

Operational data

Special qualification required
Current time UTC:
Current local time:
Weather
METAR: KLNS 091353Z 29007KT 10SM OVC095 09/03 A3009 RMK AO2 SLP192 T00940028
TAF: KLNS 091131Z 0912/1012 28006KT P6SM BKN100 FM091700 18007KT 5SM -RA BR OVC030 FM100500 35007KT 3SM -RA BR BKN009 OVC018 FM101100 34008G15KT P6SM BKN015 OVC025
View NOTAMs / SUP AIP / TFR affecting this airport [VIEW]
Communications frequencies: [VIEW]

Runways:

RWY identifierQFULength (ft)Width (ft)SurfaceLDA (ft)
0868°6933150ASPH6118
26248°6933150ASPH6118
13119°4102100ASPH4102
31299°4102100ASPH4102

Airport contact information

Address: Lancaster United States

Other aviation service providers

Flight schools

Aero-Tech Services, Inc.

Aero-Tech Services, Inc.

Fly Advanced - Lancaster

Fly Advanced - Lancaster
info@flyadvanced.com+1(717)735-5179

Sport Flying Usa

Sport Flying Usa

Dutch Country Helicopters, Inc.

Dutch Country Helicopters, Inc.
darren@flydch.com+1(717)735-2208

Satellite view of KLNS